Airfield :
LOGIN :

Register | Disclaimer

   EN    FR    IT 

 










Legend :    VFR   Marginal VFR   IFR   Intensive IFR   Very Intensive IFR
Visi :
Ceiling :
>= 8 km
>= 3000ft
5 to 8 km
1000 to 3000 ft
1500m to 5 km
500 to 1000 ft
800 to 1500m
200 to 500 ft
< 800m
< 200 ft
Symbols :   Thunderstorms  Fog  Heavy snow  Heavy precipitations  Wind > 20 kt
SIGMETs :     Misc.  Thunderstorms  Icing  Turbulence  Mountain Waves  Volcanic Ashes







- Airport Elevation : 59 ft
- IATA code : TSF


LIPH - Treviso

CURRENT METAR :
  • 222350Z AUTO 05003KT 1900 BR SCT005/// OVC024/// 07/06 Q1018

EXPIRED METARs :
  • 222320Z AUTO 07002KT 1800 BR OVC025/// 07/06 Q1018
  • 222250Z AUTO 11003KT 1900 BR FEW006/// OVC025/// 07/06 Q1018
  • 222220Z AUTO 11002KT 1900 BR FEW006/// OVC026/// 07/06 Q1018
  • 222150Z 06003KT 1800 BR FEW005 BKN025 07/06 Q1018
  • 222120Z 09004KT 1800 BR FEW005 BKN025 07/06 Q1018

TAF TAF LIPH
Valid from the 23 at 00:00 until the 24 at 00:00 UTC


222300Z 2300/2324 VRB05KT 2000 BR BKN015
TEMPO 2300/2306 0300 FG BKN004
TEMPO 2310/2316 6000
No reported NOTAMs for that airfield.



MET'MAP, your aeronautical weather chart ! - Copyright ORBIFLY December 2007 - Disclaimer

ORBIFLY MET'MAP TEAM :

Programming & Development : Alexandra Zaïnal
Concept & Development : Baudouin d'Aumeries
Co-Development & Prog : Marc-Olivier Méhu
Technical & hardware support : Manuel Goepfert

Contact : metmap@orbifly.com




SOURCES & CREDITS :

   NOAA